Time;durP1;ratioP1;P1;durP2;ratioP2;P2;SDS_P1;SDS_P2;PMS_P1;PMS_P2;Temp;Humidity;BMP_temperature;BMP_pressure;BME280_temperature;BME280_humidity;BME280_pressure;Samples;Min_cycle;Max_cycle;Signal;HPM_P1;HPM_P2
2022/01/23 00:00:01;;;;;;;98.22;42.62;;;;;;;-3.31;70.90;101601.77;1986384;85;31059;-58
2022/01/23 00:03:00;;;;;;;95.67;39.90;;;;;;;-3.37;71.02;101605.98;2136207;83;33639;-58
2022/01/23 00:06:00;;;;;;;101.40;42.17;;;;;;;-3.40;71.05;101593.22;2139397;82;30123;-63
2022/01/23 00:09:02;;;;;;;91.70;39.35;;;;;;;-3.44;71.10;101599.21;2056513;84;27928;-58
2022/01/23 00:12:11;;;;;;;96.63;41.83;;;;;;;-3.48;71.21;101598.68;2080531;85;28656;-59
2022/01/23 00:18:31;;;;;;;94.25;43.83;;;;;;;-3.53;71.27;101590.66;2131985;83;34418;-60
2022/01/23 00:21:34;;;;;;;94.55;41.55;;;;;;;-3.54;71.41;101570.55;2138671;83;29709;-65
2022/01/23 00:31:13;;;;;;;98.75;42.73;;;;;;;-3.53;71.67;101561.45;2159407;82;31777;-60
2022/01/23 00:34:15;;;;;;;96.32;39.60;;;;;;;-3.51;71.79;101561.47;2135311;83;33146;-62
2022/01/23 00:37:19;;;;;;;90.83;38.88;;;;;;;-3.49;71.91;101562.41;2135001;83;30536;-60
2022/01/23 00:40:23;;;;;;;86.95;38.02;;;;;;;-3.45;72.04;101567.30;2135686;83;27734;-60
2022/01/23 00:43:30;;;;;;;70.47;27.57;;;;;;;-3.41;72.14;101558.70;2122731;83;28740;-61
2022/01/23 00:46:37;;;;;;;95.85;40.95;;;;;;;-3.36;72.22;101561.03;2133288;83;32255;-60
2022/01/23 00:49:38;;;;;;;104.12;41.08;;;;;;;-3.32;72.34;101570.77;2077480;85;34558;-60
2022/01/23 00:52:39;;;;;;;99.37;41.58;;;;;;;-3.23;72.50;101578.00;2136948;83;30026;-60
2022/01/23 00:55:46;;;;;;;94.65;40.58;;;;;;;-3.19;72.56;101581.58;2077323;85;27755;-60
2022/01/23 00:58:48;;;;;;;91.08;39.88;;;;;;;-3.12;72.65;101593.59;2112951;84;29842;-61
2022/01/23 01:01:50;;;;;;;102.90;41.88;;;;;;;-3.07;72.65;101594.61;2075765;85;33134;-60
2022/01/23 01:04:52;;;;;;;106.05;40.30;;;;;;;-3.00;72.62;101598.69;2136120;82;34203;-60
2022/01/23 01:07:59;;;;;;;103.25;41.20;;;;;;;-2.95;72.68;101598.40;2197733;80;29707;-60
2022/01/23 01:30:08;;;;;;;90.03;38.28;;;;;;;-2.78;72.73;101597.52;2242542;79;30603;-60
2022/01/23 01:33:47;;;;;;;85.45;36.05;;;;;;;-2.57;72.87;101590.66;2189494;81;31425;-57
2022/01/23 01:36:47;;;;;;;86.75;35.52;;;;;;;-2.52;72.90;101581.58;2188486;81;33516;-58
2022/01/23 01:39:48;;;;;;;83.07;35.70;;;;;;;-2.49;72.96;101581.22;2189669;81;30350;-60
2022/01/23 01:42:50;;;;;;;88.47;37.95;;;;;;;-2.44;72.99;101587.89;2208479;80;27702;-57
2022/01/23 01:45:54;;;;;;;78.60;34.55;;;;;;;-2.39;73.11;101586.69;2240118;79;29019;-58
2022/01/23 01:48:56;;;;;;;69.92;32.15;;;;;;;-2.35;73.08;101584.20;2164312;80;31509;-58
2022/01/23 01:52:01;;;;;;;75.92;32.50;;;;;;;-2.31;73.11;101582.08;2197091;81;33867;-59
2022/01/23 01:55:07;;;;;;;79.10;34.63;;;;;;;-2.26;73.21;101591.41;2227649;79;30102;-59
2022/01/23 01:58:22;;;;;;;69.42;31.17;;;;;;;-2.20;73.31;101585.41;2237832;79;27640;-59
2022/01/23 02:11:13;;;;;;;74.22;31.57;;;;;;;-2.05;73.22;101552.95;2217015;80;30489;-58
2022/01/23 02:17:52;;;;;;;67.42;31.23;;;;;;;-2.01;73.22;101550.86;2216153;79;28675;-59
2022/01/23 02:57:03;;;;;;;58.52;27.42;;;;;;;-1.65;73.68;101598.03;2189349;81;33852;-60
2022/01/23 03:00:12;;;;;;;65.08;28.05;;;;;;;-1.62;73.63;101598.98;2193461;81;29999;-60
2022/01/23 03:03:14;;;;;;;72.47;28.70;;;;;;;-1.59;73.73;101601.67;2167507;79;27891;-60
2022/01/23 03:26:24;;;;;;;52.53;23.52;;;;;;;-1.36;73.78;101592.05;1975446;89;27287;-61
2022/01/23 03:29:24;;;;;;;51.25;24.50;;;;;;;-1.32;73.75;101596.52;1935168;90;33319;-60
2022/01/23 03:32:36;;;;;;;59.48;25.97;;;;;;;-1.30;73.76;101592.19;1966640;89;29552;-60
2022/01/23 03:35:32;;;;;;;51.85;24.12;;;;;;;-1.27;73.82;101594.89;1985057;89;27801;-60
2022/01/23 03:38:35;;;;;;;55.33;24.85;;;;;;;-1.27;73.80;101590.04;1967488;88;28680;-59
2022/01/23 03:41:40;;;;;;;58.80;25.12;;;;;;;-1.21;73.92;101591.48;1988678;89;32413;-59
2022/01/23 03:44:52;;;;;;;55.58;25.17;;;;;;;-1.18;73.93;101592.87;1988685;89;32989;-59
2022/01/23 03:51:07;;;;;;;54.80;23.95;;;;;;;-1.11;73.93;101599.13;2124925;83;27742;-60
2022/01/23 03:54:13;;;;;;;55.95;22.75;;;;;;;-1.09;73.89;101598.73;2142732;83;28848;-61
2022/01/23 03:57:17;;;;;;;50.50;23.45;;;;;;;-1.07;74.00;101598.31;2118649;83;30616;-59
2022/01/23 04:00:20;;;;;;;52.17;22.75;;;;;;;-1.03;73.98;101612.43;2142640;83;33617;-59
2022/01/23 04:03:24;;;;;;;52.03;22.10;;;;;;;-1.03;73.97;101611.98;2142358;83;28299;-59
2022/01/23 04:06:27;;;;;;;48.48;23.07;;;;;;;-1.00;74.00;101605.92;2111681;83;27784;-59
2022/01/23 04:09:30;;;;;;;55.60;24.18;;;;;;;-0.98;74.03;101609.03;2106181;84;30760;-59
2022/01/23 04:12:49;;;;;;;45.78;22.90;;;;;;;-0.93;74.04;101609.11;2105797;84;27795;-63
2022/01/23 04:16:06;;;;;;;57.00;24.40;;;;;;;-0.92;74.04;101605.63;2118965;83;34250;-62
2022/01/23 04:32:34;;;;;;;53.52;24.10;;;;;;;-0.80;74.05;101625.57;2222513;78;33645;-61
2022/01/23 04:35:44;;;;;;;53.95;23.47;;;;;;;-0.78;74.01;101627.81;2218384;80;29117;-62
2022/01/23 04:45:27;;;;;;;52.95;24.30;;;;;;;-0.70;73.98;101634.97;2191951;81;32327;-61
2022/01/23 05:04:58;;;;;;;65.55;29.37;;;;;;;-0.64;74.01;101657.02;2262583;78;32754;-61
2022/01/23 05:08:04;;;;;;;69.87;30.15;;;;;;;-0.62;73.98;101663.20;2262272;78;30494;-60
2022/01/23 05:11:07;;;;;;;57.43;27.65;;;;;;;-0.60;74.06;101667.17;2262276;78;27687;-61
2022/01/23 05:14:09;;;;;;;62.73;27.42;;;;;;;-0.59;74.03;101670.70;2262664;78;28618;-58
2022/01/23 05:17:14;;;;;;;65.45;29.32;;;;;;;-0.57;74.05;101676.85;2262041;78;31880;-58
2022/01/23 05:20:18;;;;;;;58.40;25.20;;;;;;;-0.55;74.02;101681.31;2273068;77;33014;-58
2022/01/23 05:23:21;;;;;;;49.90;24.70;;;;;;;-0.54;74.06;101688.77;2287146;77;29375;-59
2022/01/23 05:26:23;;;;;;;60.90;25.02;;;;;;;-0.53;74.06;101678.70;2285290;77;27798;-59
2022/01/23 05:29:30;;;;;;;55.08;25.20;;;;;;;-0.50;74.16;101678.75;2283941;77;29242;-65
2022/01/23 05:32:37;;;;;;;50.83;25.30;;;;;;;-0.49;74.09;101674.82;2283622;77;32301;-59
2022/01/23 05:35:37;;;;;;;51.85;25.25;;;;;;;-0.53;74.07;101649.73;2263011;78;33643;-60
2022/01/23 05:38:39;;;;;;;50.12;26.57;;;;;;;-0.53;74.07;101649.73;2222714;79;29720;-60
2022/01/23 05:41:41;;;;;;;47.55;24.10;;;;;;;-0.42;74.05;101662.69;2263199;78;27645;-59
2022/01/23 05:44:43;;;;;;;46.15;21.93;;;;;;;-0.40;74.01;101667.52;2222717;80;28656;-62
2022/01/23 05:47:46;;;;;;;47.48;21.90;;;;;;;-0.39;74.05;101662.72;2235820;78;31026;-62
2022/01/23 05:50:49;;;;;;;42.48;20.90;;;;;;;-0.38;74.05;101656.59;2270804;77;33358;-62
2022/01/23 05:53:51;;;;;;;46.37;21.60;;;;;;;-0.37;74.09;101656.18;2288096;77;29481;-65
2022/01/23 05:56:53;;;;;;;46.13;21.55;;;;;;;-0.35;74.05;101671.58;2288896;77;28215;-61
2022/01/23 05:59:55;;;;;;;47.33;20.77;;;;;;;-0.35;74.07;101661.91;2258000;77;29457;-63
2022/01/23 06:02:57;;;;;;;45.65;21.93;;;;;;;-0.32;74.13;101666.34;2196010;79;31341;-62
2022/01/23 06:06:01;;;;;;;51.65;22.70;;;;;;;-0.31;74.09;101669.02;2169626;81;33883;-59
2022/01/23 06:09:03;;;;;;;47.83;23.80;;;;;;;-0.30;74.04;101665.94;2209693;79;28774;-59
2022/01/23 06:12:07;;;;;;;46.68;21.97;;;;;;;-0.28;74.12;101675.20;2252976;77;28192;-60
2022/01/23 06:15:11;;;;;;;49.40;22.27;;;;;;;-0.25;74.20;101682.72;2195531;81;28647;-60
2022/01/23 06:18:13;;;;;;;51.23;24.37;;;;;;;-0.23;74.21;101680.09;2195889;81;31009;-61
2022/01/23 06:21:19;;;;;;;45.03;22.22;;;;;;;-0.20;74.25;101681.47;2195623;81;33650;-59
2022/01/23 06:24:29;;;;;;;47.70;22.67;;;;;;;-0.18;74.12;101690.29;2130936;83;29558;-62
2022/01/23 06:27:33;;;;;;;45.73;23.22;;;;;;;-0.18;74.11;101679.75;2086588;84;27670;-60
2022/01/23 06:30:36;;;;;;;49.65;23.55;;;;;;;-0.16;74.16;101679.36;2077357;84;28953;-59
2022/01/23 06:33:38;;;;;;;49.85;23.05;;;;;;;-0.12;74.16;101688.19;2100591;84;31172;-60
2022/01/23 06:36:41;;;;;;;49.27;24.10;;;;;;;-0.11;74.09;101679.42;2100317;84;33106;-59
2022/01/23 06:39:43;;;;;;;47.50;23.35;;;;;;;-0.11;74.11;101675.47;2120058;83;29708;-59
2022/01/23 06:42:45;;;;;;;46.75;24.30;;;;;;;-0.08;74.20;101679.03;2132784;83;27700;-59
2022/01/23 06:45:47;;;;;;;50.17;25.08;;;;;;;-0.07;74.07;101674.22;2100742;84;29156;-59
2022/01/23 06:48:49;;;;;;;44.58;23.98;;;;;;;-0.06;74.11;101677.31;2101019;83;31021;-60
2022/01/23 06:51:51;;;;;;;49.00;23.80;;;;;;;-0.03;74.02;101677.82;2101066;83;32965;-59
2022/01/23 06:54:54;;;;;;;52.48;23.52;;;;;;;-0.04;74.03;101682.19;2143005;80;30562;-59
2022/01/23 06:57:56;;;;;;;47.67;23.47;;;;;;;-0.04;74.00;101687.45;2186034;81;27716;-59
2022/01/23 07:00:58;;;;;;;46.28;22.90;;;;;;;-0.03;74.03;101677.82;2186715;81;29042;-59
2022/01/23 07:04:04;;;;;;;56.40;26.33;;;;;;;-0.02;74.11;101681.78;2186737;81;31442;-59
2022/01/23 07:07:08;;;;;;;51.42;23.80;;;;;;;0.01;74.14;101690.16;2205967;80;33906;-59
2022/01/23 07:10:14;;;;;;;50.85;24.12;;;;;;;0.04;74.16;101696.80;2217398;80;29385;-58
2022/01/23 07:13:29;;;;;;;;;;;;;;;;;;;;;
2022/01/23 07:16:23;;;;;;;46.80;21.87;;;;;;;0.11;74.21;101704.37;2215852;79;29879;-59
2022/01/23 07:19:27;;;;;;;39.98;20.17;;;;;;;0.14;74.18;101713.23;2195464;80;31435;-60
2022/01/23 07:22:32;;;;;;;39.85;20.48;;;;;;;0.16;74.12;101716.33;2225280;79;34233;-61
2022/01/23 07:25:37;;;;;;;42.55;20.57;;;;;;;0.18;74.14;101718.53;2206431;80;30120;-61
2022/01/23 07:28:41;;;;;;;41.80;20.05;;;;;;;0.22;74.20;101730.49;2141187;81;27965;-61
2022/01/23 07:31:57;;;;;;;43.50;21.10;;;;;;;0.26;74.23;101727.47;2199983;79;28691;-61
2022/01/23 07:34:52;;;;;;;39.73;19.90;;;;;;;0.30;74.29;101730.61;2176832;81;28217;-61
2022/01/23 07:37:57;;;;;;;44.70;20.60;;;;;;;0.36;74.31;101732.01;2197837;81;33325;-61
2022/01/23 07:44:07;;;;;;;41.48;21.02;;;;;;;0.48;74.30;101739.67;2063788;86;27721;-62
2022/01/23 07:47:09;;;;;;;42.65;22.02;;;;;;;0.53;74.24;101738.87;2050811;85;28744;-65
2022/01/23 07:50:17;;;;;;;51.95;22.22;;;;;;;0.60;74.28;101746.00;2076957;84;31195;-65
2022/01/23 07:53:19;;;;;;;43.40;21.00;;;;;;;0.71;74.21;101757.16;2077719;85;32955;-64
2022/01/23 07:56:20;;;;;;;50.35;22.58;;;;;;;0.81;74.16;101762.14;2100041;84;29331;-65
2022/01/23 07:59:22;;;;;;;42.20;20.60;;;;;;;0.88;74.16;101768.84;2077286;85;27858;-68
2022/01/23 08:02:23;;;;;;;40.83;21.17;;;;;;;0.95;73.97;101773.77;2099097;84;28652;-64
2022/01/23 08:05:25;;;;;;;42.73;21.30;;;;;;;1.03;73.97;101775.20;2073839;84;31034;-63
2022/01/23 08:08:27;;;;;;;42.75;21.15;;;;;;;1.11;73.90;101785.86;2077745;85;33156;-64
2022/01/23 08:11:29;;;;;;;44.30;20.50;;;;;;;1.18;73.88;101789.91;2100196;84;30099;-64
2022/01/23 08:14:31;;;;;;;40.48;20.12;;;;;;;1.27;73.82;101793.11;2077511;85;27762;-67
2022/01/23 08:17:33;;;;;;;38.78;20.82;;;;;;;1.35;73.71;101794.08;2100375;84;28664;-66
2022/01/23 08:20:35;;;;;;;41.80;19.98;;;;;;;1.42;73.52;101796.81;2077473;85;31183;-64
2022/01/23 08:23:38;;;;;;;44.65;20.88;;;;;;;1.48;73.48;101805.69;2100234;84;33775;-65
2022/01/23 08:26:39;;;;;;;47.25;23.50;;;;;;;1.55;73.32;101800.50;2076871;85;29341;-65
2022/01/23 08:29:41;;;;;;;45.92;23.45;;;;;;;1.63;73.36;101797.50;2075063;85;28299;-64
2022/01/23 08:32:43;;;;;;;44.35;22.62;;;;;;;1.73;73.24;101803.36;2069930;84;28494;-65
2022/01/23 08:35:45;;;;;;;38.50;22.45;;;;;;;1.81;73.25;101810.05;2076020;85;31203;-68
2022/01/23 08:38:47;;;;;;;37.60;19.20;;;;;;;1.88;73.03;101809.23;2075813;85;32994;-70
2022/01/23 08:41:51;;;;;;;43.78;20.37;;;;;;;1.95;72.92;101804.89;2139494;82;29376;-69
2022/01/23 08:44:54;;;;;;;42.33;20.45;;;;;;;2.05;72.94;101800.59;2165778;81;28397;-65
2022/01/23 08:47:56;;;;;;;35.38;19.15;;;;;;;2.16;73.03;101802.89;2191390;81;28705;-67
2022/01/23 08:50:58;;;;;;;41.15;19.48;;;;;;;2.25;72.87;101809.60;2190996;81;31960;-65
2022/01/23 08:54:02;;;;;;;38.78;19.62;;;;;;;2.36;72.81;101804.42;2190985;81;32955;-65
2022/01/23 08:57:06;;;;;;;41.98;20.95;;;;;;;2.47;72.78;101799.22;2190952;81;29356;-66
2022/01/23 09:00:09;;;;;;;39.45;21.27;;;;;;;2.57;72.63;101800.16;2190649;81;27701;-65
2022/01/23 09:03:13;;;;;;;39.63;21.65;;;;;;;2.65;72.42;101801.11;2181739;81;27756;-66
2022/01/23 09:06:15;;;;;;;39.98;20.23;;;;;;;2.74;72.31;101804.27;2153180;82;31020;-66
2022/01/23 09:09:19;;;;;;;46.77;20.88;;;;;;;2.83;72.21;101806.09;2151885;82;28130;-65
2022/01/23 09:12:41;;;;;;;41.05;21.07;;;;;;;2.91;72.09;101808.78;2152965;82;29383;-67
2022/01/23 09:15:30;;;;;;;89.28;41.95;;;;;;;3.01;72.06;101806.63;2179435;80;27624;-65
2022/01/23 09:18:31;;;;;;;425.50;172.65;;;;;;;3.10;71.91;101806.70;2178889;81;28679;-66
2022/01/23 09:21:33;;;;;;;299.75;146.32;;;;;;;3.18;71.85;101814.69;2217569;80;31065;-68
2022/01/23 09:24:34;;;;;;;201.88;117.05;;;;;;;3.23;71.62;101823.98;2190663;81;33140;-70
2022/01/23 09:27:38;;;;;;;266.75;137.32;;;;;;;3.29;71.57;101828.00;2236413;78;30111;-68
2022/01/23 09:30:47;;;;;;;378.20;181.93;;;;;;;3.36;71.50;101826.27;2261749;77;27701;-66
2022/01/23 09:33:47;;;;;;;491.40;171.22;;;;;;;3.43;71.40;101832.02;2221115;80;28831;-69
2022/01/23 09:36:53;;;;;;;75.85;30.75;;;;;;;3.53;71.40;101834.28;2262672;77;31014;-65
2022/01/23 09:39:53;;;;;;;;;;;;;;;3.62;71.28;101831.23;2263592;78;32957;-66
2022/01/23 09:43:17;;;;;;;54.90;26.87;;;;;;;3.71;71.07;101825.08;2273139;77;29307;-64
2022/01/23 09:46:21;;;;;;;78.78;37.78;;;;;;;3.78;71.04;101820.26;2292755;77;27674;-64
2022/01/23 09:49:23;;;;;;;59.40;29.10;;;;;;;3.89;71.03;101818.94;2294188;77;28647;-64
2022/01/23 09:52:25;;;;;;;40.20;22.98;;;;;;;3.98;70.82;101815.88;2294539;77;31829;-67
2022/01/23 09:55:27;;;;;;;33.70;19.07;;;;;;;4.08;70.89;101817.23;2294166;77;33088;-64
2022/01/23 09:58:29;;;;;;;38.30;18.75;;;;;;;4.19;70.68;101821.66;2294624;77;29327;-64
2022/01/23 10:01:31;;;;;;;32.40;18.65;;;;;;;4.26;70.42;101826.10;2294772;77;27714;-66
2022/01/23 10:04:33;;;;;;;36.28;20.08;;;;;;;4.31;70.37;101828.30;2246122;77;29505;-63
2022/01/23 10:07:41;;;;;;;39.70;19.30;;;;;;;4.39;70.33;101830.95;2233559;77;30997;-66
2022/01/23 10:10:49;;;;;;;32.88;17.65;;;;;;;4.43;70.10;101826.56;2224175;78;35138;-64
2022/01/23 10:13:50;;;;;;;34.78;19.02;;;;;;;4.45;70.06;101824.34;2261350;78;27746;-66
2022/01/23 10:16:51;;;;;;;33.45;18.75;;;;;;;4.49;69.76;101820.81;2261556;78;27771;-64
2022/01/23 10:19:53;;;;;;;35.50;18.80;;;;;;;4.55;69.87;101823.45;2256621;77;29454;-63
2022/01/23 10:22:57;;;;;;;38.48;18.25;;;;;;;4.62;69.65;101824.78;2222808;78;31001;-63
2022/01/23 10:25:59;;;;;;;34.78;18.12;;;;;;;4.67;69.57;101828.33;2237876;78;33039;-61
2022/01/23 10:29:26;;;;;;;40.38;20.00;;;;;;;4.72;69.65;101822.55;2242045;78;29468;-64
2022/01/23 10:32:28;;;;;;;36.63;19.00;;;;;;;4.77;69.42;101826.56;2228155;79;27740;-65
2022/01/23 10:35:32;;;;;;;35.03;18.42;;;;;;;4.84;69.30;101821.67;2237126;79;28804;-63
2022/01/23 10:38:39;;;;;;;33.78;19.80;;;;;;;4.92;69.20;101817.67;2237532;79;31021;-64
2022/01/23 10:48:26;;;;;;;32.78;19.45;;;;;;;5.14;68.91;101823.82;2217670;79;27696;-65
2022/01/23 10:51:37;;;;;;;31.93;18.40;;;;;;;5.19;68.67;101818.52;2181007;80;28681;-64
2022/01/23 10:54:39;;;;;;;44.50;25.62;;;;;;;5.22;68.58;101816.73;2235437;79;31080;-64
2022/01/23 10:57:44;;;;;;;36.70;21.87;;;;;;;5.27;68.66;101817.61;2217309;80;33662;-64
2022/01/23 11:00:47;;;;;;;34.15;19.65;;;;;;;5.32;68.60;101815.80;2216311;80;30235;-64
2022/01/23 11:04:08;;;;;;;34.73;18.82;;;;;;;5.33;68.16;101814.05;2222965;79;27724;-64
2022/01/23 11:07:11;;;;;;;31.77;18.65;;;;;;;5.32;68.33;101818.45;2178280;81;28647;-63
2022/01/23 11:10:20;;;;;;;36.80;18.42;;;;;;;5.33;68.22;101826.87;2198224;80;31047;-64
2022/01/23 11:17:23;;;;;;;41.83;20.05;;;;;;;5.31;68.18;101832.63;2219809;79;30514;-63
2022/01/23 11:20:42;;;;;;;39.60;20.15;;;;;;;5.27;68.08;101833.55;2244956;78;27739;-64
2022/01/23 11:23:44;;;;;;;39.30;20.08;;;;;;;5.21;67.99;101818.95;2224312;79;28651;-64
2022/01/23 11:26:46;;;;;;;37.75;20.40;;;;;;;5.18;68.24;101812.30;2180773;80;31820;-64
2022/01/23 11:30:11;;;;;;;41.58;20.80;;;;;;;5.22;68.34;101811.41;2224711;79;33990;-65
2022/01/23 11:33:17;;;;;;;39.40;20.00;;;;;;;5.25;68.36;101815.83;2133501;82;29369;-65
2022/01/23 11:36:21;;;;;;;44.85;22.20;;;;;;;5.25;68.18;101815.83;2129540;83;27846;-64
2022/01/23 11:39:45;;;;;;;39.42;22.55;;;;;;;5.26;68.24;101817.59;2128035;83;28712;-64
2022/01/23 11:56:33;;;;;;;42.53;23.10;;;;;;;5.33;68.02;101819.36;2127973;83;29867;-64
2022/01/23 11:59:41;;;;;;;39.35;21.70;;;;;;;5.36;68.13;101818.03;2126730;83;31110;-65
2022/01/23 12:02:44;;;;;;;40.67;22.07;;;;;;;5.37;68.00;101823.78;2128709;83;30548;-65
2022/01/23 12:05:48;;;;;;;37.23;22.67;;;;;;;5.40;68.03;101822.42;2126297;83;29346;-65
2022/01/23 12:08:50;;;;;;;33.00;16.87;;;;;;;5.42;68.01;101825.95;2154196;79;27737;-65
2022/01/23 12:12:36;;;;;;;35.48;20.48;;;;;;;5.42;67.86;101829.95;2217483;80;28639;-65
2022/01/23 12:18:52;;;;;;;36.17;20.25;;;;;;;5.33;68.01;101817.57;2182388;80;33064;-65
2022/01/23 12:21:58;;;;;;;35.73;20.35;;;;;;;5.35;67.90;101814.03;2240649;79;30017;-65
2022/01/23 12:25:09;;;;;;;;;;;;;;;5.31;67.94;101815.82;2220166;80;28171;-66
2022/01/23 12:28:27;;;;;;;34.83;20.10;;;;;;;5.32;67.95;101814.47;2196875;79;28835;-67
2022/01/23 12:31:28;;;;;;;35.78;20.82;;;;;;;5.35;68.02;101820.67;2200354;79;31187;-67
2022/01/23 12:34:52;;;;;;;37.55;19.85;;;;;;;5.38;68.12;101819.34;2189803;81;33750;-67
2022/01/23 12:38:06;;;;;;;35.50;20.72;;;;;;;5.42;68.07;101810.02;2222281;80;30897;-66
2022/01/23 12:41:30;;;;;;;31.42;18.05;;;;;;;5.47;68.02;101809.98;2222505;80;27764;-66
2022/01/23 12:44:36;;;;;;;30.35;18.80;;;;;;;5.50;67.93;101813.97;2227278;78;28655;-68
2022/01/23 12:47:37;;;;;;;27.80;18.05;;;;;;;5.55;67.94;101812.61;2260186;78;31013;-69
2022/01/23 12:50:46;;;;;;;52.27;32.48;;;;;;;5.59;67.92;101807.30;2260890;78;33005;-70
2022/01/23 12:53:53;;;;;;;47.45;26.52;;;;;;;5.60;67.81;101802.42;2221542;80;29328;-66
2022/01/23 12:56:58;;;;;;;35.80;23.90;;;;;;;5.62;67.80;101807.30;2222055;80;27720;-66
2022/01/23 13:00:10;;;;;;;37.03;20.43;;;;;;;5.59;67.79;101805.97;2236464;78;28666;-67
2022/01/23 13:03:14;;;;;;;40.15;24.95;;;;;;;5.57;67.90;101810.41;2244024;77;31174;-66
2022/01/23 13:06:17;;;;;;;51.68;31.73;;;;;;;5.53;68.18;101809.98;2270911;77;32964;-67
2022/01/23 13:09:43;;;;;;;48.10;27.62;;;;;;;5.55;68.40;101809.95;2278332;77;29310;-65
2022/01/23 13:12:46;;;;;;;86.40;38.15;;;;;;;5.58;68.50;101817.92;2231179;78;27669;-64
2022/01/23 13:16:04;;;;;;;57.83;30.23;;;;;;;5.57;68.69;101818.81;2240348;78;28847;-66
2022/01/23 13:32:56;;;;;;;35.55;23.67;;;;;;;5.28;68.91;101818.05;2261349;77;29504;-64
2022/01/23 13:35:58;;;;;;;45.35;28.62;;;;;;;5.24;68.98;101819.38;2262601;77;31293;-66
2022/01/23 13:39:06;;;;;;;44.30;29.25;;;;;;;5.15;69.08;101827.82;2276717;77;33009;-66
2022/01/23 13:42:18;;;;;;;41.35;26.68;;;;;;;5.09;69.14;101831.80;2221330;77;29352;-66
2022/01/23 13:52:10;;;;;;;41.98;24.47;;;;;;;4.93;69.41;101828.31;2225095;78;32092;-65
2022/01/23 13:58:39;;;;;;;39.08;24.80;;;;;;;4.85;69.50;101837.62;2221989;80;30205;-64
2022/01/23 14:01:51;;;;;;;35.92;24.23;;;;;;;4.80;69.49;101839.84;2198272;80;27672;-65
2022/01/23 14:05:14;;;;;;;34.50;21.52;;;;;;;4.76;69.61;101839.39;2222248;78;28804;-67
2022/01/23 14:08:24;;;;;;;30.15;19.95;;;;;;;4.71;69.68;101850.89;2242465;78;31212;-67
2022/01/23 14:11:31;;;;;;;36.45;20.85;;;;;;;4.67;69.73;101846.91;2118884;81;33772;-66
2022/01/23 14:14:33;;;;;;;30.27;20.35;;;;;;;4.61;69.76;101847.80;2177133;81;29383;-65
2022/01/23 14:17:42;;;;;;;24.47;15.00;;;;;;;4.56;69.85;101856.20;2151063;81;27816;-67
2022/01/23 14:20:51;;;;;;;47.35;31.23;;;;;;;4.50;69.93;101862.39;2143046;81;28666;-66
2022/01/23 14:23:56;;;;;;;52.15;37.53;;;;;;;4.46;69.96;101857.95;2120991;83;28073;-64
2022/01/23 14:27:06;;;;;;;44.48;29.20;;;;;;;4.40;70.01;101857.52;2133804;83;33967;-64
2022/01/23 14:30:23;;;;;;;43.63;26.25;;;;;;;4.36;70.11;101857.52;2102333;83;29521;-63
2022/01/23 14:33:25;;;;;;;42.70;25.55;;;;;;;4.30;70.24;101859.72;2121946;83;27707;-66
2022/01/23 14:36:35;;;;;;;39.67;25.65;;;;;;;4.25;70.40;101868.10;2123722;83;28779;-66
2022/01/23 14:39:46;;;;;;;42.73;23.73;;;;;;;4.19;70.51;101872.95;2126979;83;28009;-65
2022/01/23 14:43:01;;;;;;;39.90;23.95;;;;;;;4.14;70.76;101871.19;2180110;79;33037;-66
2022/01/23 14:46:06;;;;;;;36.83;23.65;;;;;;;4.08;70.83;101875.58;2197984;81;29316;-65
2022/01/23 14:49:21;;;;;;;44.18;24.02;;;;;;;4.03;71.02;101877.77;2198211;79;27701;-65
2022/01/23 14:52:16;;;;;;;41.23;24.12;;;;;;;3.97;71.20;101876.00;2199096;79;28812;-65
2022/01/23 14:55:44;;;;;;;;;;;;;;;;;;;;;
2022/01/23 14:58:44;;;;;;;;;;;;;;;3.86;71.43;101881.25;2216481;79;33186;-67
2022/01/23 15:05:05;;;;;;;37.33;23.30;;;;;;;3.73;71.65;101883.38;2099860;83;27915;-66
2022/01/23 15:08:12;;;;;;;41.23;24.30;;;;;;;3.68;71.71;101878.52;2099301;84;28733;-66
2022/01/23 15:11:16;;;;;;;46.45;29.15;;;;;;;3.64;71.83;101874.53;2120520;82;31956;-66
2022/01/23 15:14:18;;;;;;;45.65;29.27;;;;;;;3.61;71.99;101870.98;2127613;83;33258;-65
2022/01/23 15:17:20;;;;;;;44.77;27.87;;;;;;;3.58;72.04;101877.14;2106506;83;29835;-66
2022/01/23 15:20:22;;;;;;;44.70;26.30;;;;;;;3.55;72.15;101871.84;2127303;83;27858;-65
2022/01/23 15:23:24;;;;;;;79.60;37.40;;;;;;;3.53;72.24;101879.32;2127904;83;28643;-66
2022/01/23 15:26:28;;;;;;;62.43;33.90;;;;;;;3.49;72.29;101884.59;2128038;83;31909;-65
2022/01/23 15:29:30;;;;;;;62.90;32.77;;;;;;;3.45;72.40;101885.48;2127757;83;34226;-65
2022/01/23 15:32:31;;;;;;;84.70;44.80;;;;;;;3.43;72.52;101881.94;2128025;83;29763;-64
2022/01/23 15:35:38;;;;;;;72.15;42.62;;;;;;;3.39;72.56;101892.52;2139518;82;27813;-67
2022/01/23 15:38:44;;;;;;;80.47;46.18;;;;;;;3.33;72.67;101900.86;2131194;82;29370;-66
2022/01/23 15:41:45;;;;;;;66.75;39.88;;;;;;;3.32;72.83;101898.18;2154729;82;31052;-66
2022/01/23 15:44:47;;;;;;;55.67;34.38;;;;;;;3.29;72.94;101904.81;2132775;83;33009;-67
2022/01/23 15:47:49;;;;;;;56.85;34.38;;;;;;;3.28;73.00;101907.01;2087265;83;29434;-64
2022/01/23 15:50:50;;;;;;;54.80;33.98;;;;;;;3.29;73.06;101912.75;2124704;83;27785;-63
2022/01/23 15:53:52;;;;;;;54.70;33.18;;;;;;;3.25;73.03;101917.13;2110147;83;29554;-61
2022/01/23 15:56:54;;;;;;;60.92;38.35;;;;;;;3.23;73.07;101914.89;2110250;84;31044;-63
2022/01/23 15:59:55;;;;;;;55.03;34.13;;;;;;;3.18;73.25;101911.35;2102168;84;32944;-62
2022/01/23 16:02:57;;;;;;;65.60;37.85;;;;;;;3.13;73.31;101908.68;2104030;84;29323;-65
2022/01/23 16:05:59;;;;;;;61.33;36.38;;;;;;;3.10;73.46;101913.95;2112619;84;27796;-62
2022/01/23 16:09:01;;;;;;;68.55;36.90;;;;;;;3.09;73.55;101920.11;2163958;81;29450;-63
2022/01/23 16:12:04;;;;;;;74.55;39.92;;;;;;;3.06;73.61;101920.53;2191971;80;31129;-62
2022/01/23 16:15:11;;;;;;;76.92;41.10;;;;;;;3.01;73.67;101918.73;2187850;81;33027;-61
2022/01/23 16:18:15;;;;;;;69.67;37.58;;;;;;;3.01;73.82;101920.48;2164088;81;27735;-64
2022/01/23 16:21:17;;;;;;;69.77;36.00;;;;;;;2.97;73.82;101920.89;2177133;80;27761;-60
2022/01/23 16:24:19;;;;;;;67.87;35.45;;;;;;;2.95;73.86;101925.29;2188013;81;29029;-61
2022/01/23 16:27:21;;;;;;;54.58;31.17;;;;;;;2.93;73.94;101915.57;2187867;81;32324;-61
2022/01/23 16:30:23;;;;;;;58.30;33.15;;;;;;;2.91;74.06;101912.89;2180550;81;34067;-61
2022/01/23 16:33:27;;;;;;;61.37;32.48;;;;;;;2.92;74.14;101907.18;2189126;79;29819;-61
2022/01/23 16:36:35;;;;;;;61.50;32.98;;;;;;;2.91;74.21;101895.69;2196467;79;27976;-62
2022/01/23 16:39:37;;;;;;;63.25;35.48;;;;;;;2.91;74.14;101899.66;2188791;79;29567;-61
2022/01/23 16:42:40;;;;;;;63.58;34.92;;;;;;;2.90;74.25;101903.17;2188774;81;32270;-62
2022/01/23 16:45:45;;;;;;;66.87;36.35;;;;;;;2.90;74.22;101904.50;2195438;79;33664;-62
2022/01/23 16:48:48;;;;;;;63.80;35.33;;;;;;;2.89;74.29;101909.38;2190501;81;29340;-61
2022/01/23 16:51:50;;;;;;;70.80;37.35;;;;;;;2.88;74.26;101908.92;2195286;81;27788;-62
2022/01/23 16:54:53;;;;;;;104.00;50.40;;;;;;;2.87;74.29;101915.09;2183379;81;30069;-63
2022/01/23 16:57:56;;;;;;;121.70;60.10;;;;;;;2.85;74.33;101912.41;2193667;79;31718;-63
2022/01/23 17:00:58;;;;;;;110.45;55.65;;;;;;;2.84;74.33;101915.92;2195605;80;33311;-63
2022/01/23 17:04:03;;;;;;;109.80;55.45;;;;;;;2.83;74.40;101924.73;2195058;80;29731;-64
2022/01/23 17:07:04;;;;;;;122.22;61.85;;;;;;;2.80;74.43;101924.73;2195500;80;27734;-64
2022/01/23 17:10:10;;;;;;;127.25;64.22;;;;;;;2.78;74.47;101921.19;2163643;81;27756;-64
2022/01/23 17:13:14;;;;;;;126.50;66.07;;;;;;;2.78;74.55;101929.13;2194163;79;31099;-65
2022/01/23 17:16:17;;;;;;;139.03;67.62;;;;;;;2.79;74.66;101927.35;2146701;81;33023;-62
2022/01/23 17:19:19;;;;;;;132.12;65.92;;;;;;;2.77;74.65;101927.35;2195282;80;29340;-62
2022/01/23 17:22:21;;;;;;;135.57;67.32;;;;;;;2.78;74.68;101937.48;2195759;80;27746;-63
2022/01/23 17:25:23;;;;;;;150.97;71.25;;;;;;;2.77;74.70;101938.36;2185098;79;29648;-62